Time;durP1;ratioP1;P1;durP2;ratioP2;P2;SDS_P1;SDS_P2;PMS_P1;PMS_P2;Temp;Humidity;BMP_temperature;BMP_pressure;BME280_temperature;BME280_humidity;BME280_pressure;Samples;Min_cycle;Max_cycle;Signal;HPM_P1;HPM_P2
2021/09/15 00:02:25;;;;;;;3.30;2.63;;;22.50;59.90;;;;;;5020376;28;20562;-71
2021/09/15 00:04:53;;;;;;;2.53;1.67;;;22.40;59.90;;;;;;5022843;28;20249;-71
2021/09/15 00:07:20;;;;;;;0.50;0.50;;;22.40;59.80;;;;;;5022325;28;20242;-71
2021/09/15 00:09:47;;;;;;;1.27;1.17;;;22.50;59.90;;;;;;5021013;28;20211;-71
2021/09/15 00:12:14;;;;;;;2.23;1.90;;;22.40;59.80;;;;;;5023160;28;20214;-71
2021/09/15 00:14:41;;;;;;;4.73;2.10;;;22.40;59.70;;;;;;5012424;28;20232;-71
2021/09/15 00:17:08;;;;;;;2.07;0.93;;;22.40;59.60;;;;;;5021719;28;20254;-71
2021/09/15 00:19:36;;;;;;;1.57;1.47;;;22.40;59.50;;;;;;5021387;28;20219;-71
2021/09/15 00:22:03;;;;;;;2.43;0.97;;;22.40;59.50;;;;;;5023241;28;20269;-71
2021/09/15 00:24:30;;;;;;;1.70;0.93;;;22.40;59.40;;;;;;5012064;28;20216;-71
2021/09/15 00:26:57;;;;;;;1.53;1.43;;;22.40;59.50;;;;;;5016408;28;20273;-71
2021/09/15 00:29:23;;;;;;;6.97;1.70;;;22.40;59.50;;;;;;5022038;28;20216;-71
2021/09/15 00:31:51;;;;;;;1.53;0.77;;;22.40;59.50;;;;;;5021470;28;20277;-71
2021/09/15 00:34:18;;;;;;;3.47;1.63;;;22.50;59.40;;;;;;5027629;28;20214;-71
2021/09/15 00:36:45;;;;;;;2.27;2.07;;;22.50;59.30;;;;;;5024236;28;20286;-71
2021/09/15 00:39:12;;;;;;;1.67;1.13;;;22.50;59.20;;;;;;5016204;28;20242;-71
2021/09/15 00:41:39;;;;;;;2.40;1.47;;;22.50;59.00;;;;;;5017870;28;20651;-71
2021/09/15 00:44:08;;;;;;;0.90;0.67;;;22.60;59.00;;;;;;5022155;28;20640;-71
2021/09/15 00:46:38;;;;;;;1.93;1.83;;;22.60;58.90;;;;;;5024395;28;20247;-71
2021/09/15 00:49:06;;;;;;;2.87;1.87;;;22.60;58.90;;;;;;5026572;28;20211;-71
2021/09/15 00:51:38;;;;;;;1.60;1.50;;;22.70;58.80;;;;;;5026544;28;20250;-71
2021/09/15 00:54:08;;;;;;;1.30;0.87;;;22.70;58.90;;;;;;5008661;28;20270;-71
2021/09/15 00:56:35;;;;;;;3.93;1.77;;;22.60;58.80;;;;;;5025664;28;20699;-71
2021/09/15 00:59:03;;;;;;;2.03;1.80;;;22.50;58.80;;;;;;5025997;28;20651;-71
2021/09/15 01:01:30;;;;;;;1.80;0.70;;;22.50;58.90;;;;;;5023391;28;20215;-71
2021/09/15 01:03:58;;;;;;;1.20;0.70;;;22.40;59.00;;;;;;5015395;28;20220;-71
2021/09/15 01:06:28;;;;;;;4.97;2.17;;;22.40;59.00;;;;;;5015744;28;20246;-71
2021/09/15 01:08:57;;;;;;;1.63;1.53;;;22.40;59.10;;;;;;5015990;28;20211;-71
2021/09/15 01:11:24;;;;;;;0.77;0.77;;;22.40;59.20;;;;;;5014842;28;20212;-71
2021/09/15 01:13:51;;;;;;;1.23;1.13;;;22.40;59.30;;;;;;5021702;28;20215;-71
2021/09/15 01:16:18;;;;;;;6.97;2.30;;;22.30;59.20;;;;;;5024249;28;20639;-71
2021/09/15 01:18:47;;;;;;;1.73;1.63;;;22.30;59.20;;;;;;5024549;28;20229;-71
2021/09/15 01:21:14;;;;;;;6.20;2.07;;;22.30;59.80;;;;;;5025971;28;20207;-71
2021/09/15 01:23:41;;;;;;;0.93;0.93;;;22.30;59.20;;;;;;5024044;28;20250;-71
2021/09/15 01:26:08;;;;;;;2.83;2.37;;;22.30;59.20;;;;;;5025205;28;20272;-71
2021/09/15 01:28:35;;;;;;;0.80;0.80;;;22.30;59.20;;;;;;5025409;28;20281;-71
2021/09/15 01:31:02;;;;;;;2.87;2.67;;;22.30;59.80;;;;;;5023865;28;20270;-71
2021/09/15 01:33:29;;;;;;;3.93;1.43;;;22.30;59.10;;;;;;5026203;28;20211;-71
2021/09/15 01:35:56;;;;;;;2.03;1.00;;;22.30;59.10;;;;;;5024180;28;20211;-71
2021/09/15 01:38:23;;;;;;;1.77;0.50;;;22.40;59.00;;;;;;5027350;28;20269;-71
2021/09/15 01:40:50;;;;;;;0.63;0.63;;;22.40;59.70;;;;;;5025399;28;20281;-72
2021/09/15 01:43:17;;;;;;;1.27;1.17;;;22.30;59.00;;;;;;5025008;28;20211;-72
2021/09/15 01:45:44;;;;;;;1.23;1.07;;;22.30;59.10;;;;;;5022272;28;20239;-72
2021/09/15 01:48:11;;;;;;;1.10;1.00;;;22.20;59.10;;;;;;5025139;28;20211;-72
2021/09/15 01:50:38;;;;;;;1.03;1.03;;;22.20;59.20;;;;;;5023943;28;20582;-72
2021/09/15 01:53:06;;;;;;;0.20;0.20;;;22.20;59.30;;;;;;5026721;28;20203;-71
2021/09/15 01:55:33;;;;;;;3.57;1.10;;;22.20;59.40;;;;;;5022144;28;20285;-71
2021/09/15 01:58:00;;;;;;;1.90;1.20;;;22.20;59.40;;;;;;5016113;28;20229;-71
2021/09/15 02:00:27;;;;;;;4.47;1.40;;;22.20;59.40;;;;;;5023677;28;20215;-71
2021/09/15 02:02:54;;;;;;;2.23;1.60;;;22.20;59.40;;;;;;5023691;28;20223;-71
2021/09/15 02:05:21;;;;;;;0.40;0.40;;;22.20;59.40;;;;;;5025065;28;20238;-71
2021/09/15 02:07:48;;;;;;;2.90;1.13;;;22.20;59.50;;;;;;5022521;28;20596;-71
2021/09/15 02:10:16;;;;;;;3.67;2.47;;;22.20;59.60;;;;;;5026388;28;20293;-71
2021/09/15 02:12:42;;;;;;;1.47;1.37;;;22.10;60.20;;;;;;5010783;28;20746;-71
2021/09/15 02:15:13;;;;;;;0.87;0.87;;;22.10;59.70;;;;;;5023148;28;20459;-71
2021/09/15 02:17:41;;;;;;;0.77;0.77;;;22.10;59.80;;;;;;5025238;28;20219;-71
2021/09/15 02:20:09;;;;;;;1.17;1.17;;;22.10;59.90;;;;;;5022897;28;20243;-71
2021/09/15 02:22:37;;;;;;;0.70;0.70;;;22.00;60.00;;;;;;5006346;28;20238;-71
2021/09/15 02:25:07;;;;;;;1.60;1.50;;;22.10;60.00;;;;;;5016233;28;20211;-71
2021/09/15 02:27:34;;;;;;;0.83;0.60;;;22.00;60.00;;;;;;5013391;28;20632;-71
2021/09/15 02:30:01;;;;;;;3.97;1.77;;;22.00;60.00;;;;;;5013565;28;20589;-71
2021/09/15 02:32:28;;;;;;;0.87;0.87;;;22.00;60.00;;;;;;5013597;28;20208;-71
2021/09/15 02:34:56;;;;;;;3.87;1.83;;;22.00;60.00;;;;;;5013997;28;20212;-71
2021/09/15 02:37:22;;;;;;;1.67;0.83;;;22.00;60.00;;;;;;5013419;28;20663;-71
2021/09/15 02:39:49;;;;;;;0.60;0.60;;;21.90;60.00;;;;;;5013403;28;20644;-71
2021/09/15 02:42:17;;;;;;;1.17;0.53;;;21.90;60.30;;;;;;5018675;28;20601;-71
2021/09/15 02:44:44;;;;;;;2.33;1.27;;;21.90;60.40;;;;;;5007794;28;20255;-72
2021/09/15 02:47:11;;;;;;;1.33;1.23;;;21.80;60.50;;;;;;5010699;28;20249;-72
2021/09/15 02:49:38;;;;;;;0.70;0.40;;;21.80;60.80;;;;;;5020923;28;20208;-72
2021/09/15 02:52:05;;;;;;;0.87;0.80;;;21.80;61.00;;;;;;5022333;28;20270;-71
2021/09/15 02:54:32;;;;;;;3.13;0.80;;;21.70;61.00;;;;;;5023156;28;20207;-72
2021/09/15 02:57:00;;;;;;;1.30;1.03;;;21.70;61.10;;;;;;5024238;28;20215;-71
2021/09/15 02:59:27;;;;;;;1.50;1.10;;;21.60;61.10;;;;;;5021393;28;20243;-71
2021/09/15 03:01:55;;;;;;;0.77;0.60;;;21.60;61.10;;;;;;5006744;28;20611;-71
2021/09/15 03:04:22;;;;;;;1.13;1.00;;;21.60;61.00;;;;;;5020321;28;20286;-71
2021/09/15 03:06:49;;;;;;;3.83;1.57;;;21.60;60.90;;;;;;5023027;28;20670;-71
2021/09/15 03:09:17;;;;;;;0.60;0.60;;;21.60;61.00;;;;;;5021551;28;20609;-71
2021/09/15 03:11:45;;;;;;;0.30;0.30;;;21.60;61.00;;;;;;5024394;28;20598;-71
2021/09/15 03:14:12;;;;;;;1.77;0.93;;;21.70;61.10;;;;;;5022509;28;20211;-71
2021/09/15 03:16:39;;;;;;;0.40;0.40;;;21.70;61.00;;;;;;5022079;28;20249;-72
2021/09/15 03:19:05;;;;;;;0.40;0.40;;;21.70;60.90;;;;;;5024032;28;20219;-72
2021/09/15 03:21:33;;;;;;;1.20;1.17;;;21.70;60.90;;;;;;5020618;28;20211;-72
2021/09/15 03:23:59;;;;;;;1.50;1.40;;;21.80;60.90;;;;;;5024084;28;20646;-72
2021/09/15 03:26:26;;;;;;;1.07;0.97;;;21.80;60.80;;;;;;5022151;28;20298;-71
2021/09/15 03:28:54;;;;;;;1.13;0.70;;;21.80;60.70;;;;;;5021656;28;20227;-71
2021/09/15 03:31:21;;;;;;;2.80;1.80;;;21.70;60.50;;;;;;5024742;28;20628;-71
2021/09/15 03:33:48;;;;;;;0.30;0.30;;;21.80;60.80;;;;;;5022188;28;20594;-71
2021/09/15 03:36:16;;;;;;;1.47;1.27;;;21.80;60.70;;;;;;5023549;28;20215;-72
2021/09/15 03:38:43;;;;;;;0.33;0.33;;;21.80;60.60;;;;;;5026088;28;20219;-72
2021/09/15 03:41:11;;;;;;;1.70;1.13;;;21.80;60.50;;;;;;5024342;28;20554;-72
2021/09/15 03:43:39;;;;;;;1.20;1.20;;;21.80;60.40;;;;;;5028003;28;20212;-71
2021/09/15 03:46:06;;;;;;;0.53;0.53;;;21.90;60.50;;;;;;5026096;28;20285;-72
2021/09/15 03:48:33;;;;;;;1.17;1.10;;;21.90;60.50;;;;;;5026389;28;20243;-72
2021/09/15 03:51:00;;;;;;;0.70;0.70;;;21.90;60.40;;;;;;5025182;28;20560;-71
2021/09/15 03:53:28;;;;;;;3.13;0.77;;;21.80;60.40;;;;;;5010540;28;20274;-71
2021/09/15 03:55:55;;;;;;;3.73;1.13;;;21.90;60.40;;;;;;5024421;28;20223;-71
2021/09/15 03:58:22;;;;;;;3.27;1.73;;;21.90;60.40;;;;;;5017146;28;20235;-71
2021/09/15 04:00:50;;;;;;;2.77;1.20;;;21.90;60.30;;;;;;5008085;28;20222;-71
2021/09/15 04:03:17;;;;;;;0.63;0.50;;;21.80;60.20;;;;;;5027814;28;20266;-71
2021/09/15 04:05:44;;;;;;;0.57;0.57;;;21.90;60.40;;;;;;5004903;28;20232;-71
2021/09/15 04:08:11;;;;;;;0.40;0.40;;;21.80;60.30;;;;;;5022502;28;20665;-71
2021/09/15 04:10:38;;;;;;;0.40;0.40;;;21.80;60.20;;;;;;5013654;28;20547;-71
2021/09/15 04:13:05;;;;;;;2.17;1.97;;;21.80;60.20;;;;;;5021136;28;20208;-72
2021/09/15 04:15:32;;;;;;;3.07;1.63;;;21.80;60.20;;;;;;5023408;28;20596;-72
2021/09/15 04:17:59;;;;;;;0.17;0.17;;;21.80;60.30;;;;;;5020846;28;20718;-72
2021/09/15 04:20:27;;;;;;;0.50;0.50;;;21.70;60.30;;;;;;5012470;28;20211;-72
2021/09/15 04:22:54;;;;;;;0.67;0.67;;;21.60;60.40;;;;;;5022726;28;20588;-72
2021/09/15 04:33:59;;;;;;;1.03;1.03;;;21.50;60.70;;;;;;4957198;28;20225;-71
2021/09/15 04:36:27;;;;;;;1.17;0.63;;;21.40;60.70;;;;;;4960856;28;20265;-71
2021/09/15 04:38:54;;;;;;;0.63;0.63;;;21.40;60.80;;;;;;4990402;28;20266;-71
2021/09/15 04:41:21;;;;;;;2.83;1.77;;;21.30;60.90;;;;;;5023324;28;20218;-71
2021/09/15 04:43:48;;;;;;;2.00;0.70;;;21.30;60.90;;;;;;5021809;28;20219;-71
2021/09/15 04:46:15;;;;;;;0.70;0.70;;;21.20;60.90;;;;;;5023422;28;20251;-71
2021/09/15 04:48:42;;;;;;;0.27;0.27;;;21.20;60.90;;;;;;5031895;28;20226;-72
2021/09/15 04:51:11;;;;;;;1.47;1.17;;;21.20;60.90;;;;;;5031711;28;20211;-71
2021/09/15 04:53:39;;;;;;;0.83;0.83;;;21.20;61.10;;;;;;5027297;28;20218;-72
2021/09/15 04:56:07;;;;;;;1.10;0.97;;;21.20;61.20;;;;;;5031070;28;20219;-72
2021/09/15 04:58:34;;;;;;;0.80;0.80;;;21.10;61.40;;;;;;5031296;28;20310;-72
2021/09/15 05:01:03;;;;;;;0.47;0.47;;;21.20;61.60;;;;;;5031219;28;20226;-72
2021/09/15 05:03:30;;;;;;;1.60;1.40;;;21.20;61.70;;;;;;5028397;28;20211;-72
2021/09/15 05:06:02;;;;;;;1.60;1.07;;;21.20;61.70;;;;;;5010467;28;20285;-72
2021/09/15 05:08:29;;;;;;;0.67;0.67;;;21.20;61.60;;;;;;5031316;28;20215;-72
2021/09/15 05:10:56;;;;;;;2.73;0.90;;;21.30;61.60;;;;;;5031178;28;20254;-72
2021/09/15 05:13:23;;;;;;;1.30;1.20;;;21.30;61.70;;;;;;5031790;28;20243;-72
2021/09/15 05:15:50;;;;;;;1.90;1.80;;;21.40;61.70;;;;;;5030846;28;20616;-72
2021/09/15 05:18:17;;;;;;;0.50;0.50;;;21.40;61.60;;;;;;5031452;28;20211;-72
2021/09/15 05:20:44;;;;;;;0.83;0.83;;;21.50;61.50;;;;;;5035259;28;20227;-72
2021/09/15 05:23:11;;;;;;;0.90;0.90;;;21.50;61.40;;;;;;5034056;28;20342;-72
2021/09/15 05:25:39;;;;;;;0.90;0.90;;;21.60;61.40;;;;;;5016929;28;20210;-72
2021/09/15 05:28:05;;;;;;;1.50;1.00;;;21.70;61.30;;;;;;5034549;28;20246;-72
2021/09/15 05:30:32;;;;;;;0.47;0.47;;;21.70;61.40;;;;;;5035405;28;20215;-72
2021/09/15 05:33:00;;;;;;;0.50;0.50;;;21.80;61.50;;;;;;5034542;28;20222;-72
2021/09/15 05:35:27;;;;;;;10.07;1.30;;;21.90;61.60;;;;;;5027326;28;20210;-72
2021/09/15 05:37:54;;;;;;;1.60;0.97;;;22.00;62.10;;;;;;5036277;28;20709;-72
2021/09/15 05:40:21;;;;;;;1.97;1.83;;;22.00;61.30;;;;;;5034603;28;20276;-72
2021/09/15 05:42:48;;;;;;;0.43;0.43;;;22.10;61.30;;;;;;5016883;28;20234;-72
2021/09/15 05:45:16;;;;;;;1.67;1.57;;;22.00;61.20;;;;;;5037687;28;20300;-72
2021/09/15 05:47:43;;;;;;;0.97;0.50;;;22.10;61.80;;;;;;5043100;28;20235;-72
2021/09/15 05:50:10;;;;;;;0.30;0.30;;;22.10;60.90;;;;;;5044404;28;20210;-72
2021/09/15 05:52:38;;;;;;;1.60;1.07;;;22.10;60.80;;;;;;5044539;28;20268;-72
2021/09/15 05:55:06;;;;;;;0.50;0.50;;;22.10;60.80;;;;;;5042517;28;20206;-72
2021/09/15 05:57:33;;;;;;;1.10;1.10;;;22.10;60.70;;;;;;5042424;28;20686;-72
2021/09/15 06:00:02;;;;;;;1.23;1.00;;;22.10;60.60;;;;;;5028390;28;20254;-72
2021/09/15 06:02:31;;;;;;;0.30;0.30;;;22.20;61.40;;;;;;5032258;28;20225;-72
2021/09/15 06:04:59;;;;;;;1.30;1.20;;;22.20;60.70;;;;;;5041767;28;20301;-72
2021/09/15 06:07:26;;;;;;;0.73;0.73;;;22.30;60.80;;;;;;5041835;28;20234;-72
2021/09/15 06:09:53;;;;;;;1.37;1.27;;;22.40;60.60;;;;;;5044040;28;20217;-72
2021/09/15 06:12:20;;;;;;;0.80;0.80;;;22.40;60.50;;;;;;5035355;28;20225;-72
2021/09/15 06:14:47;;;;;;;0.60;0.60;;;22.50;60.50;;;;;;5042336;28;20211;-72
2021/09/15 06:17:14;;;;;;;2.63;1.70;;;22.50;60.30;;;;;;5029506;28;20314;-72
2021/09/15 06:19:41;;;;;;;2.53;0.90;;;22.60;60.30;;;;;;5036600;28;20224;-72
2021/09/15 06:22:09;;;;;;;1.80;1.57;;;22.60;60.30;;;;;;5034993;28;20280;-72
2021/09/15 06:24:36;;;;;;;1.00;1.00;;;22.70;60.40;;;;;;5042742;28;20218;-72
2021/09/15 06:27:03;;;;;;;1.10;1.10;;;22.80;60.40;;;;;;5044731;28;20298;-72
2021/09/15 06:29:30;;;;;;;1.03;0.90;;;22.90;60.50;;;;;;5031168;28;20202;-72
2021/09/15 06:31:57;;;;;;;1.27;1.20;;;23.00;60.40;;;;;;5043457;28;20211;-72
2021/09/15 06:34:24;;;;;;;1.03;0.97;;;23.10;60.10;;;;;;5039384;28;20631;-72
2021/09/15 06:36:53;;;;;;;30.40;3.07;;;23.20;60.00;;;;;;5023736;28;20223;-72
2021/09/15 06:39:20;;;;;;;5.67;1.47;;;23.30;59.70;;;;;;5041987;28;20238;-72
2021/09/15 06:41:47;;;;;;;1.73;1.63;;;23.50;59.60;;;;;;5043773;28;20618;-72
2021/09/15 06:44:15;;;;;;;15.77;2.47;;;23.60;59.50;;;;;;5046778;28;20215;-72
2021/09/15 06:46:43;;;;;;;1.37;1.27;;;23.80;59.40;;;;;;5041194;28;20660;-72
2021/09/15 06:49:10;;;;;;;2.77;1.20;;;23.90;59.20;;;;;;5044627;28;20279;-72
2021/09/15 06:51:37;;;;;;;1.43;1.27;;;24.00;59.00;;;;;;5042502;28;20224;-72
2021/09/15 06:54:04;;;;;;;1.10;1.00;;;24.10;58.70;;;;;;5038210;28;20215;-72
2021/09/15 06:56:31;;;;;;;6.70;2.10;;;24.20;58.20;;;;;;5042287;28;20216;-72
2021/09/15 06:58:58;;;;;;;1.03;1.03;;;24.30;57.70;;;;;;5035739;28;20228;-72
2021/09/15 07:01:26;;;;;;;2.37;1.63;;;24.40;57.50;;;;;;5032530;28;20218;-72
2021/09/15 07:03:53;;;;;;;1.50;1.40;;;24.50;57.30;;;;;;5040113;28;20243;-72
2021/09/15 07:06:21;;;;;;;0.80;0.80;;;24.50;57.10;;;;;;5039894;28;20218;-72
2021/09/15 07:08:52;;;;;;;1.83;1.73;;;24.60;56.90;;;;;;5035440;28;20291;-72
2021/09/15 07:11:20;;;;;;;1.73;1.40;;;24.70;56.80;;;;;;5027214;28;20226;-72
2021/09/15 07:13:48;;;;;;;3.67;1.53;;;24.80;56.60;;;;;;5042695;28;20246;-72
2021/09/15 07:16:15;;;;;;;0.50;0.50;;;24.80;56.10;;;;;;5042958;28;20207;-72
2021/09/15 07:18:44;;;;;;;0.70;0.67;;;25.00;55.80;;;;;;5040880;28;20631;-72
2021/09/15 07:21:13;;;;;;;1.30;0.90;;;25.10;55.40;;;;;;5043046;28;20210;-72
2021/09/15 07:23:40;;;;;;;5.27;2.17;;;25.20;55.00;;;;;;5033673;28;20638;-72
2021/09/15 07:26:07;;;;;;;0.63;0.63;;;25.40;54.50;;;;;;5041080;28;20628;-72
2021/09/15 07:28:34;;;;;;;3.77;1.33;;;25.60;53.60;;;;;;5043776;28;20238;-72
2021/09/15 07:31:01;;;;;;;0.97;0.87;;;25.80;53.40;;;;;;5026303;28;20234;-72
2021/09/15 07:33:32;;;;;;;0.80;0.80;;;25.90;53.00;;;;;;5033149;28;20211;-72
2021/09/15 07:36:04;;;;;;;1.00;1.00;;;25.90;52.90;;;;;;5023582;28;20679;-72
2021/09/15 07:38:33;;;;;;;1.20;1.17;;;26.10;52.70;;;;;;5041203;28;20215;-72
2021/09/15 07:41:01;;;;;;;1.60;1.50;;;26.10;52.50;;;;;;5025456;28;20247;-72
2021/09/15 07:43:28;;;;;;;3.03;1.33;;;26.20;52.50;;;;;;5041854;28;20709;-72
2021/09/15 07:45:55;;;;;;;0.67;0.67;;;26.20;52.40;;;;;;5042996;28;20253;-72
2021/09/15 07:48:22;;;;;;;1.43;1.33;;;26.20;52.50;;;;;;5032137;28;20250;-72
2021/09/15 07:50:50;;;;;;;3.00;2.27;;;26.20;52.60;;;;;;5022089;28;20699;-72
2021/09/15 07:53:18;;;;;;;34.50;2.00;;;26.20;52.70;;;;;;5022652;28;20211;-72
2021/09/15 07:55:45;;;;;;;1.13;0.70;;;26.10;52.80;;;;;;5031741;28;20659;-72
2021/09/15 07:58:13;;;;;;;1.17;0.77;;;26.10;53.10;;;;;;5032187;28;20499;-72
2021/09/15 08:00:41;;;;;;;1.37;1.27;;;26.00;53.20;;;;;;5020160;28;20219;-72
2021/09/15 08:03:08;;;;;;;1.07;1.07;;;26.00;53.30;;;;;;5016081;28;20559;-72
2021/09/15 08:05:36;;;;;;;3.63;1.33;;;26.00;53.40;;;;;;5039799;28;20273;-72
2021/09/15 08:08:03;;;;;;;0.93;0.93;;;25.90;53.40;;;;;;5043696;28;20326;-72
2021/09/15 08:10:30;;;;;;;2.70;1.33;;;25.90;53.30;;;;;;5040576;28;20211;-72
2021/09/15 08:12:57;;;;;;;0.60;0.60;;;25.80;53.30;;;;;;5025375;28;20217;-72
2021/09/15 08:15:27;;;;;;;2.70;2.27;;;25.80;53.30;;;;;;5042735;28;20689;-72
2021/09/15 08:17:55;;;;;;;7.73;2.27;;;25.80;53.40;;;;;;5040103;28;20219;-72
2021/09/15 08:20:22;;;;;;;1.13;0.80;;;25.70;53.40;;;;;;5042557;28;20502;-72
2021/09/15 08:22:50;;;;;;;3.40;1.30;;;25.70;53.40;;;;;;5032806;28;20268;-72
2021/09/15 08:25:17;;;;;;;2.00;0.77;;;25.70;53.40;;;;;;5026119;28;20215;-72
2021/09/15 08:27:44;;;;;;;21.33;2.77;;;25.70;53.40;;;;;;5034182;28;20637;-72
2021/09/15 08:30:12;;;;;;;2.03;1.43;;;25.70;53.40;;;;;;5031510;28;20242;-72
2021/09/15 08:32:39;;;;;;;8.07;1.97;;;25.80;53.40;;;;;;5042458;28;20214;-72
2021/09/15 08:35:07;;;;;;;2.00;1.53;;;25.90;53.40;;;;;;5029383;28;20211;-72
2021/09/15 08:37:35;;;;;;;12.73;2.30;;;26.00;53.20;;;;;;5039779;28;20227;-72
2021/09/15 08:40:05;;;;;;;7.30;2.23;;;26.10;53.10;;;;;;5031501;28;20472;-72
2021/09/15 08:42:33;;;;;;;3.90;1.70;;;26.40;52.90;;;;;;5037266;28;20211;-72
2021/09/15 08:45:04;;;;;;;9.30;2.00;;;26.50;52.60;;;;;;5035556;28;20249;-72
2021/09/15 08:47:33;;;;;;;0.93;0.93;;;26.70;52.60;;;;;;5043597;28;20546;-72
2021/09/15 08:50:01;;;;;;;3.57;1.83;;;26.80;52.60;;;;;;5026308;28;20221;-72
2021/09/15 08:52:28;;;;;;;4.90;1.17;;;26.90;52.50;;;;;;5040413;28;20215;-72
2021/09/15 08:54:56;;;;;;;0.77;0.77;;;27.30;52.30;;;;;;5043714;28;20268;-72
2021/09/15 08:57:23;;;;;;;2.43;1.70;;;27.60;51.70;;;;;;5043184;28;20211;-72
2021/09/15 08:59:50;;;;;;;51.30;16.43;;;28.10;51.20;;;;;;5043727;28;20223;-72
2021/09/15 09:02:20;;;;;;;2.83;2.60;;;28.40;50.50;;;;;;5033179;28;20219;-72
2021/09/15 09:05:00;;;;;;;2.53;2.33;;;28.50;50.40;;;;;;5042919;28;20218;-72
2021/09/15 09:07:29;;;;;;;2.50;2.20;;;28.60;50.40;;;;;;5044415;28;20234;-72
2021/09/15 09:10:00;;;;;;;3.60;2.30;;;28.70;50.20;;;;;;5043945;28;20221;-72
2021/09/15 09:12:29;;;;;;;4.63;2.23;;;28.80;50.50;;;;;;5043006;28;20883;-72
2021/09/15 09:15:11;;;;;;;3.23;2.93;;;28.80;50.50;;;;;;5045375;28;20606;-72
2021/09/15 09:17:39;;;;;;;1.37;1.17;;;28.80;50.70;;;;;;5043472;28;20556;-72
2021/09/15 09:20:28;;;;;;;2.07;1.97;;;28.80;50.90;;;;;;5045023;28;20257;-72
2021/09/15 09:23:05;;;;;;;2.53;2.33;;;28.70;51.20;;;;;;5044408;28;20313;-72
2021/09/15 09:25:44;;;;;;;0.40;0.40;;;28.70;51.40;;;;;;5042661;28;20268;-72
2021/09/15 09:28:30;;;;;;;1.03;0.97;;;28.60;51.50;;;;;;5043066;28;20227;-72
2021/09/15 09:30:59;;;;;;;2.53;1.77;;;28.60;51.70;;;;;;5044838;28;20218;-72
2021/09/15 09:33:27;;;;;;;2.13;1.20;;;28.60;51.80;;;;;;5045840;28;20619;-72
2021/09/15 09:36:00;;;;;;;1.70;1.47;;;28.70;51.90;;;;;;5045504;28;20268;-72
2021/09/15 09:38:39;;;;;;;4.07;2.20;;;28.70;51.90;;;;;;5034787;28;20490;-72
2021/09/15 09:41:11;;;;;;;2.77;1.60;;;28.70;51.90;;;;;;5033869;28;20215;-72
2021/09/15 09:43:56;;;;;;;2.20;1.90;;;28.70;52.10;;;;;;5040541;28;20673;-72
2021/09/15 09:46:31;;;;;;;2.40;1.17;;;28.70;52.30;;;;;;5043065;28;20250;-72
2021/09/15 09:49:02;;;;;;;3.00;1.93;;;28.80;52.20;;;;;;5046704;28;20229;-72
2021/09/15 09:51:33;;;;;;;1.40;1.30;;;29.00;51.90;;;;;;5042617;28;20288;-72
2021/09/15 09:54:23;;;;;;;1.47;1.33;;;29.20;51.80;;;;;;5043706;28;20593;-72
2021/09/15 09:56:52;;;;;;;7.00;2.57;;;29.40;51.40;;;;;;5044211;28;20215;-72
2021/09/15 09:59:21;;;;;;;1.63;1.53;;;29.50;51.20;;;;;;5043240;28;20254;-72
2021/09/15 10:01:50;;;;;;;6.10;2.57;;;29.60;51.10;;;;;;5025806;28;20211;-72
2021/09/15 10:04:19;;;;;;;1.60;1.50;;;29.70;51.10;;;;;;5029756;28;20276;-72
2021/09/15 10:06:47;;;;;;;4.73;1.87;;;29.80;51.00;;;;;;5032441;28;20221;-72
2021/09/15 10:09:14;;;;;;;2.27;1.83;;;30.00;50.90;;;;;;5045303;28;20268;-72
2021/09/15 10:11:44;;;;;;;0.90;0.90;;;30.10;50.80;;;;;;5041408;28;20206;-72
2021/09/15 10:14:15;;;;;;;1.03;0.97;;;30.10;50.60;;;;;;5041099;28;20207;-72
2021/09/15 10:16:54;;;;;;;1.50;1.40;;;30.20;50.60;;;;;;5044882;28;20241;-72
2021/09/15 10:19:33;;;;;;;1.17;1.10;;;30.20;50.60;;;;;;5043067;28;20297;-72
2021/09/15 10:22:03;;;;;;;2.20;1.87;;;30.10;50.50;;;;;;5028174;28;20214;-72
2021/09/15 10:24:49;;;;;;;1.33;0.60;;;30.30;50.50;;;;;;5043694;28;20214;-73
2021/09/15 10:27:17;;;;;;;2.43;2.23;;;30.40;50.10;;;;;;5045197;28;20226;-72
2021/09/15 10:30:07;;;;;;;1.53;1.20;;;30.40;49.50;;;;;;5044232;28;20312;-72
2021/09/15 10:32:38;;;;;;;1.13;1.03;;;30.30;50.10;;;;;;5043861;28;20209;-72
2021/09/15 10:35:09;;;;;;;4.20;1.80;;;30.30;50.20;;;;;;5042151;28;20214;-72
2021/09/15 10:37:39;;;;;;;0.87;0.87;;;30.40;50.00;;;;;;5044394;28;20228;-72
2021/09/15 10:40:11;;;;;;;1.80;1.70;;;30.50;49.70;;;;;;5041562;28;20214;-73
2021/09/15 10:42:46;;;;;;;0.57;0.57;;;30.60;49.60;;;;;;5033726;28;20207;-73
2021/09/15 10:45:26;;;;;;;0.97;0.77;;;30.70;49.30;;;;;;5045411;28;20247;-72
2021/09/15 10:48:14;;;;;;;1.97;1.87;;;30.80;48.80;;;;;;5042455;28;20665;-72
2021/09/15 10:50:41;;;;;;;1.50;1.27;;;31.10;48.40;;;;;;5045331;28;20216;-72
2021/09/15 10:53:08;;;;;;;1.67;1.37;;;31.30;47.70;;;;;;5041041;28;20271;-72
2021/09/15 10:55:50;;;;;;;1.33;1.03;;;31.50;47.80;;;;;;5043372;28;20301;-72
2021/09/15 10:58:22;;;;;;;1.23;0.97;;;31.70;47.40;;;;;;5042931;28;20218;-72
2021/09/15 11:01:03;;;;;;;2.00;1.27;;;31.80;46.80;;;;;;5041861;28;20531;-72
2021/09/15 11:03:34;;;;;;;1.20;1.13;;;31.70;46.60;;;;;;5043330;28;20547;-72
2021/09/15 11:06:07;;;;;;;1.17;0.83;;;31.60;46.80;;;;;;5041070;28;20215;-72
2021/09/15 11:08:39;;;;;;;1.47;1.37;;;31.60;46.40;;;;;;5042004;28;20234;-72
2021/09/15 11:11:25;;;;;;;2.30;1.23;;;31.60;45.30;;;;;;5041732;28;20211;-72
2021/09/15 11:13:53;;;;;;;2.40;0.90;;;31.60;45.80;;;;;;5040245;28;20218;-73
2021/09/15 11:16:36;;;;;;;3.63;1.33;;;31.60;45.20;;;;;;5031460;28;20580;-72
2021/09/15 11:19:18;;;;;;;2.27;1.17;;;31.70;45.10;;;;;;5043399;28;20233;-72
2021/09/15 11:21:54;;;;;;;0.60;0.60;;;31.80;44.80;;;;;;5024770;28;20229;-73
2021/09/15 11:24:25;;;;;;;2.07;1.73;;;31.80;44.80;;;;;;5040916;28;20246;-73
2021/09/15 11:26:56;;;;;;;0.87;0.87;;;31.90;45.00;;;;;;5041943;28;20210;-73
2021/09/15 11:29:44;;;;;;;1.23;1.13;;;32.10;44.90;;;;;;5040880;28;20235;-73
2021/09/15 11:32:15;;;;;;;0.50;0.47;;;32.10;44.40;;;;;;5037255;28;20226;-73
2021/09/15 11:34:48;;;;;;;0.83;0.83;;;32.00;44.70;;;;;;5015652;28;20225;-73
2021/09/15 11:37:18;;;;;;;2.40;1.10;;;31.90;44.60;;;;;;5044226;28;20584;-73
2021/09/15 11:39:52;;;;;;;0.70;0.57;;;31.70;44.20;;;;;;5027526;28;20246;-72
2021/09/15 11:42:25;;;;;;;2.00;1.37;;;31.50;44.00;;;;;;5040917;28;20738;-72
2021/09/15 11:44:52;;;;;;;0.30;0.30;;;31.30;44.30;;;;;;5037144;28;20250;-72
2021/09/15 11:47:38;;;;;;;2.13;2.03;;;31.20;44.90;;;;;;5020265;28;20281;-72
2021/09/15 11:50:14;;;;;;;0.53;0.53;;;31.30;45.00;;;;;;5020201;28;20281;-72
2021/09/15 11:52:43;;;;;;;0.33;0.33;;;31.60;44.80;;;;;;5021438;28;20218;-72
2021/09/15 11:55:12;;;;;;;0.77;0.77;;;31.80;44.40;;;;;;5020837;28;20622;-72
2021/09/15 11:57:47;;;;;;;2.43;0.93;;;32.20;44.20;;;;;;5020895;28;20273;-72
2021/09/15 12:00:15;;;;;;;0.93;0.93;;;32.40;43.80;;;;;;5021609;28;20215;-72
2021/09/15 12:02:45;;;;;;;0.77;0.77;;;32.70;43.30;;;;;;5021722;28;20643;-72
2021/09/15 12:05:12;;;;;;;1.27;0.80;;;32.80;42.80;;;;;;5014535;28;20215;-72
2021/09/15 12:07:42;;;;;;;1.07;0.57;;;32.80;42.90;;;;;;5012194;28;20552;-72
2021/09/15 12:10:11;;;;;;;0.60;0.60;;;32.80;43.10;;;;;;5012254;28;20227;-72
2021/09/15 12:12:39;;;;;;;0.50;0.50;;;32.70;42.60;;;;;;5011893;28;20219;-72
2021/09/15 12:15:08;;;;;;;0.57;0.57;;;32.60;42.70;;;;;;5012109;28;20208;-72
2021/09/15 12:17:36;;;;;;;0.63;0.63;;;32.70;42.40;;;;;;5019519;28;20314;-72
2021/09/15 12:20:04;;;;;;;0.80;0.80;;;32.60;41.90;;;;;;5023966;28;20277;-72
2021/09/15 12:22:32;;;;;;;2.20;2.00;;;32.50;42.10;;;;;;5004055;28;20208;-72
2021/09/15 12:25:08;;;;;;;0.57;0.50;;;32.30;42.30;;;;;;5020551;28;20559;-72
2021/09/15 12:27:36;;;;;;;0.93;0.67;;;32.10;42.50;;;;;;5022211;28;20214;-72
2021/09/15 12:30:11;;;;;;;0.70;0.70;;;31.90;43.30;;;;;;5018944;28;20258;-72
2021/09/15 12:32:40;;;;;;;0.80;0.80;;;31.80;43.00;;;;;;5016383;28;20219;-72
2021/09/15 12:35:20;;;;;;;2.03;1.83;;;31.80;43.20;;;;;;5029350;28;20211;-72
2021/09/15 12:37:48;;;;;;;0.60;0.60;;;31.80;42.80;;;;;;5024760;28;20276;-72
2021/09/15 12:40:19;;;;;;;1.40;1.03;;;31.70;42.50;;;;;;5008110;28;20721;-72
2021/09/15 12:42:59;;;;;;;0.40;0.40;;;31.80;42.60;;;;;;5027578;28;20714;-73
2021/09/15 12:45:27;;;;;;;0.80;0.53;;;31.90;42.40;;;;;;5019675;28;20300;-72
2021/09/15 12:47:55;;;;;;;1.57;0.83;;;32.10;41.70;;;;;;5050393;28;20598;-72
2021/09/15 12:50:30;;;;;;;0.23;0.23;;;32.10;41.60;;;;;;5042963;28;20211;-72
2021/09/15 12:53:05;;;;;;;0.60;0.60;;;32.10;40.90;;;;;;5030177;28;20241;-72
2021/09/15 12:55:32;;;;;;;4.33;0.97;;;32.00;41.20;;;;;;5028670;28;20295;-72
2021/09/15 12:57:59;;;;;;;0.40;0.40;;;31.90;41.60;;;;;;5046480;28;20198;-72
2021/09/15 13:00:31;;;;;;;0.80;0.80;;;31.80;41.80;;;;;;5036180;28;20217;-72
2021/09/15 13:03:03;;;;;;;0.53;0.53;;;31.70;42.10;;;;;;5042264;28;20234;-72
2021/09/15 13:05:39;;;;;;;0.87;0.50;;;31.60;42.40;;;;;;5046224;28;20264;-72